createdAt,value
2023-04-03T00:02:20.706Z,1.53
2023-04-03T00:12:25.060Z,1.40
2023-04-03T00:22:29.735Z,1.30
2023-04-03T00:32:34.404Z,1.83
2023-04-03T00:42:38.398Z,1.20
2023-04-03T00:52:43.172Z,1.70
2023-04-03T01:02:47.103Z,1.30
2023-04-03T01:12:54.405Z,1.17
2023-04-03T01:23:08.768Z,1.10
2023-04-03T01:33:13.308Z,0.90
2023-04-03T01:43:17.144Z,1.13
2023-04-03T01:53:21.621Z,1.10
2023-04-03T02:03:25.334Z,1.20
2023-04-03T02:13:29.897Z,1.57
2023-04-03T02:23:33.004Z,0.90
2023-04-03T02:33:38.222Z,1.20
2023-04-03T02:43:44.284Z,1.20
2023-04-03T02:53:48.598Z,1.03
2023-04-03T03:03:56.418Z,1.30
2023-04-03T03:14:00.931Z,1.40
2023-04-03T03:24:04.082Z,1.30
2023-04-03T03:34:08.483Z,1.30
2023-04-03T03:44:11.680Z,1.57
2023-04-03T03:54:16.442Z,1.10
2023-04-03T04:04:20.015Z,1.40
2023-04-03T04:14:24.877Z,1.17
2023-04-03T04:24:28.908Z,1.43
2023-04-03T04:34:34.656Z,1.43
2023-04-03T04:44:38.527Z,1.20
2023-04-03T04:54:43.174Z,1.30
2023-04-03T05:04:46.980Z,1.40
2023-04-03T05:14:57.656Z,1.30
2023-04-03T05:25:02.787Z,1.33
2023-04-03T05:35:08.666Z,1.30
2023-04-03T05:45:14.190Z,1.33
2023-04-03T05:55:18.972Z,1.10
2023-04-03T06:05:22.103Z,1.37
2023-04-03T06:15:26.524Z,1.17
2023-04-03T06:25:29.577Z,1.10
2023-04-03T06:35:36.172Z,0.90
2023-04-03T06:45:39.535Z,0.87
2023-04-03T06:55:45.080Z,0.80
2023-04-03T07:05:48.254Z,0.80
2023-04-03T07:15:52.843Z,0.70
2023-04-03T07:25:56.425Z,1.20
2023-04-03T07:36:01.564Z,0.80
2023-04-03T07:46:07.571Z,1.10
2023-04-03T07:56:13.203Z,0.80
2023-04-03T08:06:18.568Z,0.80
2023-04-03T08:16:26.801Z,0.90
2023-04-03T08:26:30.267Z,1.00
2023-04-03T08:36:35.647Z,1.43
2023-04-03T08:46:49.409Z,0.90
2023-04-03T08:56:54.052Z,0.70
2023-04-03T09:07:04.159Z,0.80
2023-04-03T09:17:16.519Z,1.00
2023-04-03T09:27:19.665Z,0.83
2023-04-03T09:37:39.953Z,0.80
2023-04-03T09:47:45.232Z,0.83
2023-04-03T09:57:53.669Z,0.80
2023-04-03T10:08:10.748Z,0.83
2023-04-03T10:18:31.698Z,1.13
2023-04-03T10:28:40.983Z,0.50
2023-04-03T10:38:55.708Z,0.60
2023-04-03T10:49:11.157Z,1.03
2023-04-03T11:11:28.448Z,0.50
2023-04-03T11:21:36.940Z,0.53
2023-04-03T11:31:59.991Z,0.60
2023-04-03T11:42:18.758Z,0.97
2023-04-03T11:52:59.047Z,0.40
2023-04-03T12:03:03.685Z,0.50
2023-04-03T12:13:18.140Z,0.70
2023-04-03T12:23:32.557Z,0.70
2023-04-03T12:33:49.076Z,0.30
2023-04-03T12:44:08.927Z,0.50
2023-04-03T12:54:17.559Z,0.60
2023-04-03T13:04:23.182Z,0.50
2023-04-03T13:14:29.437Z,0.50
2023-04-03T13:24:37.689Z,0.60
2023-04-03T13:34:46.560Z,0.63
2023-04-03T13:45:08.215Z,0.87
2023-04-03T13:55:37.503Z,0.60
2023-04-03T14:05:42.138Z,0.60
2023-04-03T14:15:45.665Z,0.57
2023-04-03T14:25:50.677Z,0.50
2023-04-03T14:35:55.690Z,0.60
2023-04-03T14:46:01.785Z,0.73
2023-04-03T14:56:07.176Z,0.63
2023-04-03T15:06:15.041Z,0.70
2023-04-03T15:16:20.937Z,0.80
2023-04-03T15:26:25.415Z,0.67
2023-04-03T15:36:34.164Z,0.70
2023-04-03T15:46:39.511Z,0.60
2023-04-03T15:56:43.075Z,0.67
2023-04-03T16:06:49.526Z,0.90
2023-04-03T16:16:54.477Z,0.60
2023-04-03T16:26:58.763Z,0.77
2023-04-03T16:37:02.157Z,0.50
2023-04-03T16:47:08.479Z,0.37
2023-04-03T16:57:11.625Z,0.60
2023-04-03T17:07:16.042Z,0.60
2023-04-03T17:17:23.550Z,0.70
2023-04-03T17:27:28.742Z,0.60
2023-04-03T17:37:33.711Z,0.63
2023-04-03T17:47:38.159Z,0.70
2023-04-03T17:57:41.614Z,0.50
2023-04-03T18:07:46.283Z,0.47
2023-04-03T18:17:51.360Z,0.50
2023-04-03T18:27:57.951Z,0.50
2023-04-03T18:38:01.448Z,0.93
2023-04-03T18:48:06.413Z,0.70
2023-04-03T18:58:10.254Z,0.90
2023-04-03T19:08:15.250Z,0.90
2023-04-03T19:18:18.184Z,1.00
2023-04-03T19:28:22.765Z,1.13
2023-04-03T19:38:26.285Z,1.13
2023-04-03T19:48:30.888Z,1.17
2023-04-03T19:58:34.257Z,0.80
2023-04-03T20:08:38.580Z,0.77
2023-04-03T20:18:42.504Z,0.90
2023-04-03T20:28:46.778Z,1.10
2023-04-03T20:38:52.239Z,0.90
2023-04-03T20:48:58.125Z,0.80
2023-04-03T20:59:02.543Z,1.20
2023-04-03T21:09:42.914Z,1.10
2023-04-03T21:29:53.068Z,0.80
2023-04-03T21:39:57.829Z,1.33
2023-04-03T21:50:01.465Z,0.87
2023-04-03T22:00:11.315Z,1.27
2023-04-03T22:20:20.847Z,1.30
2023-04-03T22:30:24.156Z,1.27
2023-04-03T22:40:28.629Z,1.20
2023-04-03T22:50:32.014Z,0.80
2023-04-03T23:00:36.438Z,1.23
2023-04-03T23:10:42.305Z,1.20
2023-04-03T23:20:46.432Z,1.00
2023-04-03T23:30:49.341Z,1.30
2023-04-03T23:40:53.564Z,1.20
2023-04-03T23:50:56.939Z,1.60
